sensor_id;sensor_type;location;lat;lon;timestamp;P1;durP1;ratioP1;P2;durP2;ratioP2
5805;SDS011;2929;50.810;8.342;2022-07-09T00:02:47;3.43;;;2.03;;
5805;SDS011;2929;50.810;8.342;2022-07-09T00:05:14;4.33;;;2.57;;
5805;SDS011;2929;50.810;8.342;2022-07-09T00:07:41;2.57;;;2.00;;
5805;SDS011;2929;50.810;8.342;2022-07-09T00:10:08;6.50;;;2.40;;
5805;SDS011;2929;50.810;8.342;2022-07-09T00:24:05;4.20;;;3.07;;
5805;SDS011;2929;50.810;8.342;2022-07-09T00:31:40;5.80;;;2.53;;
5805;SDS011;2929;50.810;8.342;2022-07-09T00:34:07;4.67;;;3.10;;
5805;SDS011;2929;50.810;8.342;2022-07-09T00:36:41;3.97;;;2.30;;
5805;SDS011;2929;50.810;8.342;2022-07-09T00:39:09;7.63;;;2.87;;
5805;SDS011;2929;50.810;8.342;2022-07-09T00:41:42;4.77;;;2.97;;
5805;SDS011;2929;50.810;8.342;2022-07-09T00:44:16;3.50;;;2.77;;
5805;SDS011;2929;50.810;8.342;2022-07-09T00:47:05;6.00;;;2.60;;
5805;SDS011;2929;50.810;8.342;2022-07-09T00:49:38;3.17;;;2.70;;
5805;SDS011;2929;50.810;8.342;2022-07-09T00:52:48;3.30;;;3.00;;
5805;SDS011;2929;50.810;8.342;2022-07-09T00:55:23;3.90;;;2.97;;
5805;SDS011;2929;50.810;8.342;2022-07-09T00:58:06;3.13;;;2.83;;
5805;SDS011;2929;50.810;8.342;2022-07-09T01:00:38;5.07;;;3.43;;
5805;SDS011;2929;50.810;8.342;2022-07-09T01:03:07;4.77;;;3.23;;
5805;SDS011;2929;50.810;8.342;2022-07-09T01:06:02;3.53;;;3.20;;
5805;SDS011;2929;50.810;8.342;2022-07-09T01:09:47;4.70;;;2.93;;
5805;SDS011;2929;50.810;8.342;2022-07-09T01:12:43;2.93;;;2.70;;
5805;SDS011;2929;50.810;8.342;2022-07-09T01:15:11;2.80;;;2.57;;
5805;SDS011;2929;50.810;8.342;2022-07-09T01:17:39;5.40;;;3.23;;
5805;SDS011;2929;50.810;8.342;2022-07-09T01:20:07;3.93;;;2.90;;
5805;SDS011;2929;50.810;8.342;2022-07-09T01:22:36;5.30;;;3.23;;
5805;SDS011;2929;50.810;8.342;2022-07-09T01:25:06;4.00;;;3.57;;
5805;SDS011;2929;50.810;8.342;2022-07-09T01:27:34;9.07;;;3.10;;
5805;SDS011;2929;50.810;8.342;2022-07-09T01:30:02;2.53;;;2.33;;
5805;SDS011;2929;50.810;8.342;2022-07-09T01:32:30;4.77;;;3.10;;
5805;SDS011;2929;50.810;8.342;2022-07-09T01:34:59;4.03;;;3.00;;
5805;SDS011;2929;50.810;8.342;2022-07-09T01:37:26;8.53;;;3.13;;
5805;SDS011;2929;50.810;8.342;2022-07-09T01:39:55;4.67;;;2.90;;
5805;SDS011;2929;50.810;8.342;2022-07-09T01:42:22;4.00;;;2.63;;
5805;SDS011;2929;50.810;8.342;2022-07-09T01:44:49;2.93;;;2.70;;
5805;SDS011;2929;50.810;8.342;2022-07-09T01:47:16;5.33;;;3.13;;
5805;SDS011;2929;50.810;8.342;2022-07-09T01:49:43;3.27;;;2.50;;
5805;SDS011;2929;50.810;8.342;2022-07-09T01:52:10;7.30;;;3.57;;
5805;SDS011;2929;50.810;8.342;2022-07-09T01:54:37;4.80;;;3.43;;
5805;SDS011;2929;50.810;8.342;2022-07-09T01:57:06;3.40;;;2.83;;
5805;SDS011;2929;50.810;8.342;2022-07-09T01:59:33;3.03;;;2.80;;
5805;SDS011;2929;50.810;8.342;2022-07-09T02:02:00;6.90;;;3.37;;
5805;SDS011;2929;50.810;8.342;2022-07-09T02:04:27;3.00;;;2.60;;
5805;SDS011;2929;50.810;8.342;2022-07-09T02:06:54;3.43;;;2.67;;
5805;SDS011;2929;50.810;8.342;2022-07-09T02:09:22;4.00;;;2.80;;
5805;SDS011;2929;50.810;8.342;2022-07-09T02:11:49;3.53;;;2.90;;
5805;SDS011;2929;50.810;8.342;2022-07-09T02:14:17;5.57;;;3.07;;
5805;SDS011;2929;50.810;8.342;2022-07-09T02:16:44;8.17;;;2.97;;
5805;SDS011;2929;50.810;8.342;2022-07-09T02:19:12;5.33;;;3.27;;
5805;SDS011;2929;50.810;8.342;2022-07-09T02:21:39;5.37;;;3.17;;
5805;SDS011;2929;50.810;8.342;2022-07-09T02:24:06;10.93;;;3.10;;
5805;SDS011;2929;50.810;8.342;2022-07-09T02:26:33;5.33;;;3.60;;
5805;SDS011;2929;50.810;8.342;2022-07-09T02:29:00;7.53;;;2.80;;
5805;SDS011;2929;50.810;8.342;2022-07-09T02:31:28;3.27;;;2.83;;
5805;SDS011;2929;50.810;8.342;2022-07-09T02:33:56;4.93;;;2.80;;
5805;SDS011;2929;50.810;8.342;2022-07-09T02:36:23;4.43;;;3.50;;
5805;SDS011;2929;50.810;8.342;2022-07-09T02:38:50;5.40;;;3.67;;
5805;SDS011;2929;50.810;8.342;2022-07-09T02:41:17;5.30;;;3.63;;
5805;SDS011;2929;50.810;8.342;2022-07-09T02:43:45;3.73;;;3.13;;
5805;SDS011;2929;50.810;8.342;2022-07-09T02:46:12;6.50;;;3.50;;
5805;SDS011;2929;50.810;8.342;2022-07-09T02:48:40;4.70;;;3.13;;
5805;SDS011;2929;50.810;8.342;2022-07-09T02:51:07;3.47;;;3.03;;
5805;SDS011;2929;50.810;8.342;2022-07-09T02:53:34;3.50;;;3.17;;
5805;SDS011;2929;50.810;8.342;2022-07-09T02:56:01;3.17;;;2.90;;
5805;SDS011;2929;50.810;8.342;2022-07-09T02:58:28;4.00;;;3.03;;
5805;SDS011;2929;50.810;8.342;2022-07-09T03:00:57;4.20;;;3.60;;
5805;SDS011;2929;50.810;8.342;2022-07-09T03:03:24;5.00;;;3.13;;
5805;SDS011;2929;50.810;8.342;2022-07-09T03:05:53;5.37;;;3.70;;
5805;SDS011;2929;50.810;8.342;2022-07-09T03:08:20;12.60;;;3.70;;
5805;SDS011;2929;50.810;8.342;2022-07-09T03:10:47;7.37;;;3.90;;
5805;SDS011;2929;50.810;8.342;2022-07-09T03:13:15;5.93;;;3.80;;
5805;SDS011;2929;50.810;8.342;2022-07-09T03:15:42;5.40;;;3.73;;
5805;SDS011;2929;50.810;8.342;2022-07-09T03:18:09;9.27;;;3.80;;
5805;SDS011;2929;50.810;8.342;2022-07-09T03:20:36;4.40;;;3.07;;
5805;SDS011;2929;50.810;8.342;2022-07-09T03:23:04;4.20;;;3.67;;
5805;SDS011;2929;50.810;8.342;2022-07-09T03:25:32;3.97;;;3.33;;
5805;SDS011;2929;50.810;8.342;2022-07-09T03:27:59;8.20;;;3.30;;
5805;SDS011;2929;50.810;8.342;2022-07-09T03:30:26;5.63;;;4.13;;
5805;SDS011;2929;50.810;8.342;2022-07-09T03:32:53;6.30;;;3.97;;
5805;SDS011;2929;50.810;8.342;2022-07-09T03:35:20;7.20;;;3.70;;
5805;SDS011;2929;50.810;8.342;2022-07-09T03:37:47;4.67;;;3.47;;
5805;SDS011;2929;50.810;8.342;2022-07-09T03:40:15;4.90;;;3.50;;
5805;SDS011;2929;50.810;8.342;2022-07-09T03:42:42;5.40;;;3.50;;
5805;SDS011;2929;50.810;8.342;2022-07-09T03:45:10;7.90;;;3.83;;
5805;SDS011;2929;50.810;8.342;2022-07-09T03:47:37;5.03;;;3.50;;
5805;SDS011;2929;50.810;8.342;2022-07-09T03:50:04;5.80;;;3.40;;
5805;SDS011;2929;50.810;8.342;2022-07-09T03:52:32;4.67;;;3.60;;
5805;SDS011;2929;50.810;8.342;2022-07-09T03:54:59;4.73;;;3.47;;
5805;SDS011;2929;50.810;8.342;2022-07-09T03:57:27;5.70;;;3.93;;
5805;SDS011;2929;50.810;8.342;2022-07-09T03:59:54;4.27;;;3.53;;
5805;SDS011;2929;50.810;8.342;2022-07-09T04:02:21;4.80;;;3.77;;
5805;SDS011;2929;50.810;8.342;2022-07-09T04:04:48;6.43;;;3.93;;
5805;SDS011;2929;50.810;8.342;2022-07-09T04:07:15;4.10;;;3.70;;
5805;SDS011;2929;50.810;8.342;2022-07-09T04:09:43;7.93;;;5.90;;
5805;SDS011;2929;50.810;8.342;2022-07-09T04:12:10;13.90;;;9.70;;
5805;SDS011;2929;50.810;8.342;2022-07-09T04:14:38;9.93;;;7.47;;
5805;SDS011;2929;50.810;8.342;2022-07-09T04:17:05;10.27;;;7.77;;
5805;SDS011;2929;50.810;8.342;2022-07-09T04:19:32;18.33;;;10.87;;
5805;SDS011;2929;50.810;8.342;2022-07-09T04:21:59;17.63;;;11.23;;
5805;SDS011;2929;50.810;8.342;2022-07-09T04:24:27;10.63;;;7.73;;
5805;SDS011;2929;50.810;8.342;2022-07-09T04:26:54;9.83;;;7.53;;
5805;SDS011;2929;50.810;8.342;2022-07-09T04:29:21;9.20;;;5.40;;
5805;SDS011;2929;50.810;8.342;2022-07-09T04:31:50;10.90;;;6.13;;
5805;SDS011;2929;50.810;8.342;2022-07-09T04:34:17;8.10;;;6.60;;
5805;SDS011;2929;50.810;8.342;2022-07-09T04:36:44;8.93;;;5.53;;
5805;SDS011;2929;50.810;8.342;2022-07-09T04:39:11;8.60;;;5.03;;
5805;SDS011;2929;50.810;8.342;2022-07-09T04:41:38;12.47;;;5.07;;
5805;SDS011;2929;50.810;8.342;2022-07-09T04:44:06;7.83;;;5.33;;
5805;SDS011;2929;50.810;8.342;2022-07-09T04:46:33;10.33;;;5.37;;
5805;SDS011;2929;50.810;8.342;2022-07-09T04:49:01;4.50;;;4.00;;
5805;SDS011;2929;50.810;8.342;2022-07-09T04:51:28;7.90;;;4.90;;
5805;SDS011;2929;50.810;8.342;2022-07-09T04:53:55;6.00;;;4.87;;
5805;SDS011;2929;50.810;8.342;2022-07-09T04:56:22;6.83;;;4.80;;
5805;SDS011;2929;50.810;8.342;2022-07-09T04:58:49;14.80;;;5.27;;
5805;SDS011;2929;50.810;8.342;2022-07-09T05:01:19;6.87;;;4.07;;
5805;SDS011;2929;50.810;8.342;2022-07-09T05:03:47;8.03;;;4.37;;
5805;SDS011;2929;50.810;8.342;2022-07-09T05:06:16;4.93;;;4.00;;
5805;SDS011;2929;50.810;8.342;2022-07-09T05:08:43;6.47;;;4.17;;
5805;SDS011;2929;50.810;8.342;2022-07-09T05:11:11;7.50;;;4.80;;
5805;SDS011;2929;50.810;8.342;2022-07-09T05:13:38;6.90;;;4.70;;
5805;SDS011;2929;50.810;8.342;2022-07-09T05:16:06;7.10;;;4.93;;
5805;SDS011;2929;50.810;8.342;2022-07-09T05:18:33;5.67;;;4.87;;
5805;SDS011;2929;50.810;8.342;2022-07-09T05:21:01;6.97;;;5.50;;
5805;SDS011;2929;50.810;8.342;2022-07-09T05:23:30;6.70;;;4.93;;
5805;SDS011;2929;50.810;8.342;2022-07-09T05:25:57;8.90;;;5.27;;
5805;SDS011;2929;50.810;8.342;2022-07-09T05:28:24;8.47;;;5.60;;
5805;SDS011;2929;50.810;8.342;2022-07-09T05:30:51;7.93;;;5.67;;
5805;SDS011;2929;50.810;8.342;2022-07-09T05:33:18;9.50;;;5.90;;
5805;SDS011;2929;50.810;8.342;2022-07-09T05:35:45;8.73;;;5.73;;
5805;SDS011;2929;50.810;8.342;2022-07-09T05:38:12;10.90;;;6.90;;
5805;SDS011;2929;50.810;8.342;2022-07-09T05:40:41;6.07;;;5.43;;
5805;SDS011;2929;50.810;8.342;2022-07-09T05:43:08;9.13;;;5.47;;
5805;SDS011;2929;50.810;8.342;2022-07-09T05:45:35;6.63;;;5.97;;
5805;SDS011;2929;50.810;8.342;2022-07-09T05:48:02;7.37;;;5.00;;
5805;SDS011;2929;50.810;8.342;2022-07-09T05:50:29;8.23;;;5.57;;
5805;SDS011;2929;50.810;8.342;2022-07-09T05:52:56;9.97;;;5.90;;
5805;SDS011;2929;50.810;8.342;2022-07-09T05:55:23;11.53;;;6.10;;
5805;SDS011;2929;50.810;8.342;2022-07-09T05:57:52;12.50;;;6.33;;
5805;SDS011;2929;50.810;8.342;2022-07-09T06:00:19;13.10;;;6.67;;
5805;SDS011;2929;50.810;8.342;2022-07-09T06:02:46;9.50;;;5.70;;
5805;SDS011;2929;50.810;8.342;2022-07-09T06:05:13;13.47;;;6.37;;
5805;SDS011;2929;50.810;8.342;2022-07-09T06:07:40;13.50;;;6.47;;
5805;SDS011;2929;50.810;8.342;2022-07-09T06:10:10;13.33;;;7.10;;
5805;SDS011;2929;50.810;8.342;2022-07-09T06:12:39;12.20;;;6.37;;
5805;SDS011;2929;50.810;8.342;2022-07-09T06:15:09;13.70;;;6.17;;
5805;SDS011;2929;50.810;8.342;2022-07-09T06:17:37;9.00;;;6.30;;
5805;SDS011;2929;50.810;8.342;2022-07-09T06:20:04;12.83;;;7.37;;
5805;SDS011;2929;50.810;8.342;2022-07-09T06:22:32;19.20;;;9.63;;
5805;SDS011;2929;50.810;8.342;2022-07-09T06:24:59;15.40;;;10.63;;
5805;SDS011;2929;50.810;8.342;2022-07-09T06:27:26;17.47;;;12.10;;
5805;SDS011;2929;50.810;8.342;2022-07-09T06:29:54;30.80;;;15.77;;
5805;SDS011;2929;50.810;8.342;2022-07-09T06:32:22;24.27;;;14.70;;
5805;SDS011;2929;50.810;8.342;2022-07-09T06:34:49;25.40;;;14.23;;
5805;SDS011;2929;50.810;8.342;2022-07-09T06:37:16;29.00;;;16.83;;
5805;SDS011;2929;50.810;8.342;2022-07-09T06:39:43;28.20;;;16.10;;
5805;SDS011;2929;50.810;8.342;2022-07-09T06:42:11;34.27;;;16.20;;
5805;SDS011;2929;50.810;8.342;2022-07-09T06:44:43;25.10;;;17.37;;
5805;SDS011;2929;50.810;8.342;2022-07-09T06:47:10;28.03;;;15.23;;
5805;SDS011;2929;50.810;8.342;2022-07-09T06:49:39;28.10;;;15.20;;
5805;SDS011;2929;50.810;8.342;2022-07-09T06:52:06;28.10;;;11.40;;
5805;SDS011;2929;50.810;8.342;2022-07-09T06:54:33;22.80;;;13.50;;
5805;SDS011;2929;50.810;8.342;2022-07-09T06:57:01;30.00;;;15.77;;
5805;SDS011;2929;50.810;8.342;2022-07-09T06:59:29;30.87;;;16.03;;
5805;SDS011;2929;50.810;8.342;2022-07-09T07:01:56;29.20;;;17.53;;
5805;SDS011;2929;50.810;8.342;2022-07-09T07:04:23;24.20;;;13.60;;
5805;SDS011;2929;50.810;8.342;2022-07-09T07:06:53;30.20;;;16.13;;
5805;SDS011;2929;50.810;8.342;2022-07-09T07:09:20;20.63;;;13.37;;
5805;SDS011;2929;50.810;8.342;2022-07-09T07:11:47;26.73;;;15.07;;
5805;SDS011;2929;50.810;8.342;2022-07-09T07:14:14;27.33;;;14.57;;
5805;SDS011;2929;50.810;8.342;2022-07-09T07:16:41;25.03;;;14.70;;
5805;SDS011;2929;50.810;8.342;2022-07-09T07:19:08;21.10;;;13.40;;
5805;SDS011;2929;50.810;8.342;2022-07-09T07:21:36;19.47;;;12.10;;
5805;SDS011;2929;50.810;8.342;2022-07-09T07:24:05;20.50;;;13.63;;
5805;SDS011;2929;50.810;8.342;2022-07-09T07:26:33;24.87;;;15.63;;
5805;SDS011;2929;50.810;8.342;2022-07-09T07:29:01;18.13;;;13.60;;
5805;SDS011;2929;50.810;8.342;2022-07-09T07:31:28;31.20;;;18.03;;
5805;SDS011;2929;50.810;8.342;2022-07-09T07:33:56;28.47;;;19.13;;
5805;SDS011;2929;50.810;8.342;2022-07-09T07:36:24;24.87;;;16.30;;
5805;SDS011;2929;50.810;8.342;2022-07-09T07:38:52;20.93;;;14.90;;
5805;SDS011;2929;50.810;8.342;2022-07-09T07:41:20;25.10;;;15.90;;
5805;SDS011;2929;50.810;8.342;2022-07-09T07:43:47;17.03;;;13.33;;
5805;SDS011;2929;50.810;8.342;2022-07-09T07:46:14;19.07;;;12.30;;
5805;SDS011;2929;50.810;8.342;2022-07-09T07:48:41;19.23;;;10.00;;
5805;SDS011;2929;50.810;8.342;2022-07-09T07:51:09;14.73;;;9.40;;
5805;SDS011;2929;50.810;8.342;2022-07-09T07:53:36;11.43;;;8.10;;
5805;SDS011;2929;50.810;8.342;2022-07-09T07:56:03;9.67;;;7.23;;
5805;SDS011;2929;50.810;8.342;2022-07-09T07:58:33;12.07;;;6.00;;
5805;SDS011;2929;50.810;8.342;2022-07-09T08:01:01;15.00;;;6.43;;
5805;SDS011;2929;50.810;8.342;2022-07-09T08:03:28;6.20;;;4.70;;
5805;SDS011;2929;50.810;8.342;2022-07-09T08:05:56;10.87;;;5.70;;
5805;SDS011;2929;50.810;8.342;2022-07-09T08:08:23;6.40;;;4.73;;
5805;SDS011;2929;50.810;8.342;2022-07-09T08:10:50;7.43;;;5.03;;
5805;SDS011;2929;50.810;8.342;2022-07-09T08:13:17;10.93;;;5.10;;
5805;SDS011;2929;50.810;8.342;2022-07-09T08:15:45;8.40;;;4.17;;
5805;SDS011;2929;50.810;8.342;2022-07-09T08:18:13;5.97;;;4.47;;
5805;SDS011;2929;50.810;8.342;2022-07-09T08:20:40;8.30;;;4.03;;
5805;SDS011;2929;50.810;8.342;2022-07-09T08:23:07;7.83;;;4.50;;
5805;SDS011;2929;50.810;8.342;2022-07-09T08:25:35;11.47;;;4.63;;
5805;SDS011;2929;50.810;8.342;2022-07-09T08:28:02;5.10;;;3.93;;
5805;SDS011;2929;50.810;8.342;2022-07-09T08:30:29;5.60;;;4.20;;
5805;SDS011;2929;50.810;8.342;2022-07-09T08:32:58;4.70;;;3.13;;
5805;SDS011;2929;50.810;8.342;2022-07-09T08:35:25;5.90;;;3.13;;
5805;SDS011;2929;50.810;8.342;2022-07-09T08:37:52;8.20;;;3.80;;
5805;SDS011;2929;50.810;8.342;2022-07-09T08:40:20;4.40;;;3.00;;
5805;SDS011;2929;50.810;8.342;2022-07-09T08:42:48;5.53;;;3.13;;
5805;SDS011;2929;50.810;8.342;2022-07-09T08:45:16;2.90;;;2.40;;
5805;SDS011;2929;50.810;8.342;2022-07-09T08:47:44;4.50;;;1.70;;
5805;SDS011;2929;50.810;8.342;2022-07-09T08:50:13;2.40;;;2.20;;
5805;SDS011;2929;50.810;8.342;2022-07-09T08:52:40;3.27;;;2.07;;
5805;SDS011;2929;50.810;8.342;2022-07-09T08:55:08;4.43;;;2.23;;
5805;SDS011;2929;50.810;8.342;2022-07-09T08:57:36;5.93;;;2.10;;
5805;SDS011;2929;50.810;8.342;2022-07-09T09:00:04;3.60;;;2.13;;
5805;SDS011;2929;50.810;8.342;2022-07-09T09:02:36;7.20;;;2.47;;
5805;SDS011;2929;50.810;8.342;2022-07-09T09:05:09;6.57;;;2.30;;
5805;SDS011;2929;50.810;8.342;2022-07-09T09:07:40;4.10;;;1.90;;
5805;SDS011;2929;50.810;8.342;2022-07-09T09:10:07;2.50;;;2.00;;
5805;SDS011;2929;50.810;8.342;2022-07-09T09:12:35;2.53;;;1.97;;
5805;SDS011;2929;50.810;8.342;2022-07-09T09:15:06;3.13;;;2.00;;
5805;SDS011;2929;50.810;8.342;2022-07-09T09:17:41;9.27;;;1.93;;
5805;SDS011;2929;50.810;8.342;2022-07-09T09:20:14;2.20;;;1.77;;
5805;SDS011;2929;50.810;8.342;2022-07-09T09:22:45;3.27;;;1.67;;
5805;SDS011;2929;50.810;8.342;2022-07-09T09:25:17;3.73;;;1.60;;
5805;SDS011;2929;50.810;8.342;2022-07-09T09:27:51;2.30;;;1.60;;
5805;SDS011;2929;50.810;8.342;2022-07-09T09:30:19;3.03;;;2.00;;
5805;SDS011;2929;50.810;8.342;2022-07-09T09:32:53;3.17;;;2.50;;
5805;SDS011;2929;50.810;8.342;2022-07-09T09:35:24;4.10;;;2.30;;
5805;SDS011;2929;50.810;8.342;2022-07-09T09:37:51;2.57;;;1.90;;
5805;SDS011;2929;50.810;8.342;2022-07-09T09:40:19;3.97;;;2.27;;
5805;SDS011;2929;50.810;8.342;2022-07-09T09:42:46;3.60;;;2.10;;
5805;SDS011;2929;50.810;8.342;2022-07-09T09:45:15;4.10;;;2.07;;
5805;SDS011;2929;50.810;8.342;2022-07-09T09:47:44;5.13;;;2.20;;
5805;SDS011;2929;50.810;8.342;2022-07-09T09:50:16;6.23;;;2.43;;
5805;SDS011;2929;50.810;8.342;2022-07-09T09:52:46;3.70;;;1.80;;
5805;SDS011;2929;50.810;8.342;2022-07-09T09:55:15;2.40;;;2.20;;
5805;SDS011;2929;50.810;8.342;2022-07-09T09:57:43;3.70;;;2.37;;
5805;SDS011;2929;50.810;8.342;2022-07-09T10:00:12;2.63;;;1.80;;
5805;SDS011;2929;50.810;8.342;2022-07-09T10:02:42;4.03;;;1.83;;
5805;SDS011;2929;50.810;8.342;2022-07-09T10:05:10;2.00;;;1.80;;
5805;SDS011;2929;50.810;8.342;2022-07-09T10:07:39;1.73;;;1.47;;
5805;SDS011;2929;50.810;8.342;2022-07-09T10:10:16;2.20;;;1.70;;
5805;SDS011;2929;50.810;8.342;2022-07-09T10:12:44;1.53;;;1.43;;
5805;SDS011;2929;50.810;8.342;2022-07-09T10:15:19;2.97;;;1.47;;
5805;SDS011;2929;50.810;8.342;2022-07-09T10:17:47;1.30;;;0.90;;
5805;SDS011;2929;50.810;8.342;2022-07-09T10:20:14;2.67;;;1.10;;
5805;SDS011;2929;50.810;8.342;2022-07-09T10:22:41;2.40;;;1.93;;
5805;SDS011;2929;50.810;8.342;2022-07-09T10:25:12;5.53;;;1.50;;
5805;SDS011;2929;50.810;8.342;2022-07-09T10:27:49;1.40;;;1.30;;
5805;SDS011;2929;50.810;8.342;2022-07-09T10:30:23;1.43;;;1.33;;
5805;SDS011;2929;50.810;8.342;2022-07-09T10:33:01;3.33;;;1.50;;
5805;SDS011;2929;50.810;8.342;2022-07-09T10:35:30;1.63;;;1.53;;
5805;SDS011;2929;50.810;8.342;2022-07-09T10:38:05;3.83;;;1.43;;
5805;SDS011;2929;50.810;8.342;2022-07-09T10:40:38;1.87;;;1.77;;
5805;SDS011;2929;50.810;8.342;2022-07-09T10:43:08;6.60;;;1.70;;
5805;SDS011;2929;50.810;8.342;2022-07-09T10:45:37;1.40;;;1.30;;
5805;SDS011;2929;50.810;8.342;2022-07-09T10:48:06;1.60;;;1.50;;
5805;SDS011;2929;50.810;8.342;2022-07-09T10:50:37;2.60;;;1.20;;
5805;SDS011;2929;50.810;8.342;2022-07-09T10:53:05;1.37;;;1.17;;
5805;SDS011;2929;50.810;8.342;2022-07-09T10:55:34;11.77;;;1.87;;
5805;SDS011;2929;50.810;8.342;2022-07-09T10:58:02;3.13;;;1.30;;
5805;SDS011;2929;50.810;8.342;2022-07-09T11:00:32;1.43;;;1.30;;
5805;SDS011;2929;50.810;8.342;2022-07-09T11:03:01;2.20;;;1.70;;
5805;SDS011;2929;50.810;8.342;2022-07-09T11:05:30;1.60;;;1.50;;
5805;SDS011;2929;50.810;8.342;2022-07-09T11:08:01;1.87;;;1.77;;
5805;SDS011;2929;50.810;8.342;2022-07-09T11:10:30;1.70;;;1.60;;
5805;SDS011;2929;50.810;8.342;2022-07-09T11:12:59;2.20;;;1.47;;
5805;SDS011;2929;50.810;8.342;2022-07-09T11:15:29;2.00;;;1.90;;
5805;SDS011;2929;50.810;8.342;2022-07-09T11:17:59;2.97;;;1.50;;
5805;SDS011;2929;50.810;8.342;2022-07-09T11:20:27;1.90;;;1.80;;
5805;SDS011;2929;50.810;8.342;2022-07-09T11:22:55;3.80;;;1.60;;
5805;SDS011;2929;50.810;8.342;2022-07-09T11:25:25;1.90;;;1.77;;
5805;SDS011;2929;50.810;8.342;2022-07-09T11:27:53;2.27;;;1.73;;
5805;SDS011;2929;50.810;8.342;2022-07-09T11:30:21;2.60;;;1.80;;
5805;SDS011;2929;50.810;8.342;2022-07-09T11:32:49;3.07;;;1.90;;
5805;SDS011;2929;50.810;8.342;2022-07-09T11:35:24;3.20;;;1.50;;
5805;SDS011;2929;50.810;8.342;2022-07-09T11:37:52;2.60;;;1.90;;
5805;SDS011;2929;50.810;8.342;2022-07-09T11:40:19;2.90;;;1.90;;
5805;SDS011;2929;50.810;8.342;2022-07-09T11:42:47;2.40;;;2.20;;
5805;SDS011;2929;50.810;8.342;2022-07-09T11:45:19;4.47;;;2.03;;
5805;SDS011;2929;50.810;8.342;2022-07-09T11:47:47;3.13;;;2.60;;
5805;SDS011;2929;50.810;8.342;2022-07-09T11:50:16;2.93;;;2.20;;
5805;SDS011;2929;50.810;8.342;2022-07-09T11:52:45;2.10;;;1.90;;
5805;SDS011;2929;50.810;8.342;2022-07-09T11:55:14;3.50;;;2.27;;
5805;SDS011;2929;50.810;8.342;2022-07-09T11:57:52;2.20;;;2.00;;
5805;SDS011;2929;50.810;8.342;2022-07-09T12:00:21;5.53;;;2.70;;
5805;SDS011;2929;50.810;8.342;2022-07-09T12:02:50;1.80;;;1.47;;
5805;SDS011;2929;50.810;8.342;2022-07-09T12:05:26;2.10;;;1.83;;
5805;SDS011;2929;50.810;8.342;2022-07-09T12:07:56;1.93;;;1.73;;
5805;SDS011;2929;50.810;8.342;2022-07-09T12:10:27;1.80;;;1.70;;
5805;SDS011;2929;50.810;8.342;2022-07-09T12:12:57;3.37;;;1.80;;
5805;SDS011;2929;50.810;8.342;2022-07-09T12:15:25;2.70;;;2.10;;
5805;SDS011;2929;50.810;8.342;2022-07-09T12:17:53;3.03;;;1.80;;
5805;SDS011;2929;50.810;8.342;2022-07-09T12:20:21;1.50;;;1.40;;
5805;SDS011;2929;50.810;8.342;2022-07-09T12:22:51;5.90;;;2.07;;
5805;SDS011;2929;50.810;8.342;2022-07-09T12:25:19;2.70;;;1.70;;
5805;SDS011;2929;50.810;8.342;2022-07-09T12:27:46;2.70;;;1.50;;
5805;SDS011;2929;50.810;8.342;2022-07-09T12:30:14;1.70;;;1.60;;
5805;SDS011;2929;50.810;8.342;2022-07-09T12:32:41;2.13;;;1.80;;
5805;SDS011;2929;50.810;8.342;2022-07-09T12:35:10;2.20;;;1.53;;
5805;SDS011;2929;50.810;8.342;2022-07-09T12:37:37;2.77;;;1.80;;
5805;SDS011;2929;50.810;8.342;2022-07-09T12:40:07;3.47;;;1.90;;
5805;SDS011;2929;50.810;8.342;2022-07-09T12:42:35;1.97;;;1.77;;
5805;SDS011;2929;50.810;8.342;2022-07-09T12:45:03;1.87;;;1.60;;
5805;SDS011;2929;50.810;8.342;2022-07-09T12:47:31;1.77;;;1.67;;
5805;SDS011;2929;50.810;8.342;2022-07-09T12:49:58;2.13;;;1.90;;
5805;SDS011;2929;50.810;8.342;2022-07-09T12:52:27;5.93;;;1.40;;
5805;SDS011;2929;50.810;8.342;2022-07-09T12:54:56;1.80;;;1.50;;
5805;SDS011;2929;50.810;8.342;2022-07-09T12:57:24;2.90;;;1.47;;
5805;SDS011;2929;50.810;8.342;2022-07-09T12:59:51;1.90;;;1.77;;
5805;SDS011;2929;50.810;8.342;2022-07-09T13:02:18;1.73;;;1.53;;
5805;SDS011;2929;50.810;8.342;2022-07-09T13:04:46;2.90;;;1.93;;
5805;SDS011;2929;50.810;8.342;2022-07-09T13:07:13;4.10;;;1.57;;
5805;SDS011;2929;50.810;8.342;2022-07-09T13:09:40;4.03;;;1.70;;
5805;SDS011;2929;50.810;8.342;2022-07-09T13:12:07;3.00;;;1.90;;
5805;SDS011;2929;50.810;8.342;2022-07-09T13:14:36;3.20;;;1.67;;
5805;SDS011;2929;50.810;8.342;2022-07-09T13:17:03;1.63;;;1.30;;
5805;SDS011;2929;50.810;8.342;2022-07-09T13:19:30;2.03;;;1.70;;
5805;SDS011;2929;50.810;8.342;2022-07-09T13:21:57;3.07;;;1.80;;
5805;SDS011;2929;50.810;8.342;2022-07-09T13:24:24;4.03;;;1.87;;
5805;SDS011;2929;50.810;8.342;2022-07-09T13:26:51;4.83;;;1.90;;
5805;SDS011;2929;50.810;8.342;2022-07-09T13:29:18;1.60;;;1.50;;
5805;SDS011;2929;50.810;8.342;2022-07-09T13:31:46;1.67;;;1.50;;
5805;SDS011;2929;50.810;8.342;2022-07-09T13:34:13;1.90;;;1.53;;
5805;SDS011;2929;50.810;8.342;2022-07-09T13:36:40;1.57;;;1.47;;
5805;SDS011;2929;50.810;8.342;2022-07-09T13:39:07;3.77;;;1.87;;
5805;SDS011;2929;50.810;8.342;2022-07-09T13:41:35;3.97;;;1.70;;
5805;SDS011;2929;50.810;8.342;2022-07-09T13:44:06;1.70;;;1.47;;
5805;SDS011;2929;50.810;8.342;2022-07-09T13:46:48;4.10;;;1.93;;
5805;SDS011;2929;50.810;8.342;2022-07-09T13:49:15;2.60;;;1.70;;
5805;SDS011;2929;50.810;8.342;2022-07-09T13:51:42;2.73;;;1.70;;
5805;SDS011;2929;50.810;8.342;2022-07-09T13:54:09;5.70;;;1.50;;
5805;SDS011;2929;50.810;8.342;2022-07-09T13:56:36;1.57;;;1.47;;
5805;SDS011;2929;50.810;8.342;2022-07-09T13:59:03;4.13;;;1.57;;
5805;SDS011;2929;50.810;8.342;2022-07-09T14:01:30;1.73;;;1.63;;
5805;SDS011;2929;50.810;8.342;2022-07-09T14:03:59;2.60;;;1.80;;
5805;SDS011;2929;50.810;8.342;2022-07-09T14:06:26;2.30;;;1.73;;
5805;SDS011;2929;50.810;8.342;2022-07-09T14:08:53;3.60;;;1.90;;
5805;SDS011;2929;50.810;8.342;2022-07-09T14:11:20;1.50;;;1.40;;
5805;SDS011;2929;50.810;8.342;2022-07-09T14:13:47;2.47;;;2.27;;
5805;SDS011;2929;50.810;8.342;2022-07-09T14:16:17;1.60;;;1.50;;
5805;SDS011;2929;50.810;8.342;2022-07-09T14:18:44;2.30;;;2.07;;
5805;SDS011;2929;50.810;8.342;2022-07-09T14:21:12;4.40;;;1.60;;
5805;SDS011;2929;50.810;8.342;2022-07-09T14:23:39;1.73;;;1.50;;
5805;SDS011;2929;50.810;8.342;2022-07-09T14:26:06;4.53;;;2.53;;
5805;SDS011;2929;50.810;8.342;2022-07-09T14:28:33;1.90;;;1.80;;
5805;SDS011;2929;50.810;8.342;2022-07-09T14:31:00;1.60;;;1.50;;
5805;SDS011;2929;50.810;8.342;2022-07-09T14:33:28;2.30;;;2.07;;
5805;SDS011;2929;50.810;8.342;2022-07-09T14:35:55;1.60;;;1.50;;
5805;SDS011;2929;50.810;8.342;2022-07-09T14:38:24;1.93;;;1.70;;
5805;SDS011;2929;50.810;8.342;2022-07-09T14:40:51;6.57;;;2.10;;
5805;SDS011;2929;50.810;8.342;2022-07-09T14:43:18;2.30;;;2.10;;
5805;SDS011;2929;50.810;8.342;2022-07-09T14:45:45;4.63;;;2.00;;
5805;SDS011;2929;50.810;8.342;2022-07-09T14:48:12;4.47;;;2.17;;
5805;SDS011;2929;50.810;8.342;2022-07-09T14:50:39;2.17;;;1.97;;
5805;SDS011;2929;50.810;8.342;2022-07-09T14:53:06;1.77;;;1.67;;
5805;SDS011;2929;50.810;8.342;2022-07-09T14:55:35;2.77;;;2.00;;
5805;SDS011;2929;50.810;8.342;2022-07-09T14:58:02;3.23;;;1.90;;
5805;SDS011;2929;50.810;8.342;2022-07-09T15:00:29;3.17;;;2.07;;
5805;SDS011;2929;50.810;8.342;2022-07-09T15:02:56;4.80;;;2.13;;
5805;SDS011;2929;50.810;8.342;2022-07-09T15:05:23;6.87;;;2.17;;
5805;SDS011;2929;50.810;8.342;2022-07-09T15:07:50;5.60;;;2.50;;
5805;SDS011;2929;50.810;8.342;2022-07-09T15:10:17;2.80;;;2.10;;
5805;SDS011;2929;50.810;8.342;2022-07-09T15:12:46;2.77;;;2.30;;
5805;SDS011;2929;50.810;8.342;2022-07-09T15:15:13;4.70;;;2.30;;
5805;SDS011;2929;50.810;8.342;2022-07-09T15:17:40;4.33;;;3.03;;
5805;SDS011;2929;50.810;8.342;2022-07-09T15:20:08;2.37;;;2.17;;
5805;SDS011;2929;50.810;8.342;2022-07-09T15:22:36;3.23;;;2.50;;
5805;SDS011;2929;50.810;8.342;2022-07-09T15:25:03;2.90;;;2.60;;
5805;SDS011;2929;50.810;8.342;2022-07-09T15:27:31;2.83;;;2.30;;
5805;SDS011;2929;50.810;8.342;2022-07-09T15:30:00;2.73;;;2.53;;
5805;SDS011;2929;50.810;8.342;2022-07-09T15:32:27;3.93;;;2.47;;
5805;SDS011;2929;50.810;8.342;2022-07-09T15:34:54;2.30;;;2.10;;
5805;SDS011;2929;50.810;8.342;2022-07-09T15:37:21;3.27;;;2.37;;
5805;SDS011;2929;50.810;8.342;2022-07-09T15:39:48;2.80;;;2.60;;